PWSweather.com
Personal Weather Stations
Station Observations
COONRAPIDS
Minneapolis, MN 55433

Minneapolis, MN 55433

Lat: 45.187721, Lon: -93.36828

Elevation: 898

Station Type: Davis Vantage Pro 2

High Low Average
Temperature 17.8°F-7.9°C -1.9°F-18.8°C 8.9°F-12.8°C
Dew Point 6.2°F-14.3°C -8.1°F-22.3°C -1.4°F-18.6°C
Winds 4.6 mph 7.4 kmh Calm Calm 1.0 mph SE1.6 kmh SE
Wind Gusts 9.2 mph14.8 kmh -- 3.0 mph4.8 kmh
Humidity 78% 48% 63%
Pressure 30.52 in1033.5 mb 30.14 in1020.7 mb -
Precipitation 0.00 in0.0 mm - -
Hour Temp Dew Point Humidity Winds Wind Gusts Pressure Precip Precip Rate Daily Precip Total
12:00 AM -0.9°F-18.3°C -8.0°F-22.2°C 71% Calm Calm -- 30.53 in1033.9 mb - 0.00 in0.0 mm 0.00 in0.0 mm
12:10 AM -1.0°F-18.3°C -8.1°F-22.3°C 71% Calm Calm -- 30.53 in1033.9 mb - 0.00 in0.0 mm 0.00 in0.0 mm
12:20 AM -1.0°F-18.3°C -7.9°F-22.2°C 72% Calm Calm -- 30.53 in1033.9 mb - 0.00 in0.0 mm 0.00 in0.0 mm
12:30 AM -1.2°F-18.4°C -8.0°F-22.2°C 72% Calm Calm -- 30.53 in1033.9 mb - 0.00 in0.0 mm 0.00 in0.0 mm
12:40 AM -1.3°F-18.5°C -8.1°F-22.3°C 72% Calm Calm -- 30.53 in1033.9 mb - 0.00 in0.0 mm 0.00 in0.0 mm
12:50 AM -1.4°F-18.6°C -8.0°F-22.2°C 73% Calm Calm -- 30.53 in1033.9 mb - 0.00 in0.0 mm 0.00 in0.0 mm
01:00 AM -1.5°F-18.6°C -8.1°F-22.3°C 73% Calm Calm -- 30.52 in1033.5 mb - 0.00 in0.0 mm 0.00 in0.0 mm
01:10 AM -1.4°F-18.6°C -7.7°F-22.1°C 74% Calm Calm -- 30.52 in1033.5 mb - 0.00 in0.0 mm 0.00 in0.0 mm
01:20 AM -1.5°F-18.6°C -7.8°F-22.1°C 74% Calm Calm -- 30.52 in1033.5 mb - 0.00 in0.0 mm 0.00 in0.0 mm
01:30 AM -1.7°F-18.7°C -8.0°F-22.2°C 74% Calm Calm -- 30.52 in1033.5 mb - 0.00 in0.0 mm 0.00 in0.0 mm
01:40 AM -1.8°F-18.8°C -7.8°F-22.1°C 75% Calm Calm -- 30.51 in1033.2 mb - 0.00 in0.0 mm 0.00 in0.0 mm
01:50 AM -1.8°F-18.8°C -7.8°F-22.1°C 75% Calm Calm -- 30.51 in1033.2 mb - 0.00 in0.0 mm 0.00 in0.0 mm
02:00 AM -1.9°F-18.8°C -7.9°F-22.2°C 75% Calm Calm -- 30.51 in1033.2 mb - 0.00 in0.0 mm 0.00 in0.0 mm
02:10 AM -1.9°F-18.8°C -7.6°F-22.0°C 76% Calm Calm -- 30.51 in1033.2 mb - 0.00 in0.0 mm 0.00 in0.0 mm
02:20 AM -1.9°F-18.8°C -7.6°F-22.0°C 76% Calm Calm -- 30.51 in1033.2 mb - 0.00 in0.0 mm 0.00 in0.0 mm
02:30 AM -1.9°F-18.8°C -7.6°F-22.0°C 76% Calm Calm -- 30.50 in1032.8 mb - 0.00 in0.0 mm 0.00 in0.0 mm
02:40 AM -1.8°F-18.8°C -7.5°F-21.9°C 76% Calm Calm -- 30.50 in1032.8 mb - 0.00 in0.0 mm 0.00 in0.0 mm
02:50 AM -1.8°F-18.8°C -7.5°F-21.9°C 76% Calm Calm -- 30.50 in1032.8 mb - 0.00 in0.0 mm 0.00 in0.0 mm
03:00 AM -1.8°F-18.8°C -7.6°F-22.0°C 76% Calm Calm -- 30.50 in1032.8 mb - 0.00 in0.0 mm 0.00 in0.0 mm
03:10 AM -1.9°F-18.8°C -7.3°F-21.8°C 77% Calm Calm -- 30.51 in1033.2 mb - 0.00 in0.0 mm 0.00 in0.0 mm
03:20 AM -1.9°F-18.8°C -7.3°F-21.8°C 77% Calm Calm -- 30.51 in1033.2 mb - 0.00 in0.0 mm 0.00 in0.0 mm
03:30 AM -1.7°F-18.7°C -7.2°F-21.8°C 77% Calm Calm -- 30.52 in1033.5 mb - 0.00 in0.0 mm 0.00 in0.0 mm
03:40 AM -1.7°F-18.7°C -7.1°F-21.7°C 77% Calm Calm -- 30.52 in1033.5 mb - 0.00 in0.0 mm 0.00 in0.0 mm
03:50 AM -1.7°F-18.7°C -7.2°F-21.8°C 77% Calm Calm -- 30.52 in1033.5 mb - 0.00 in0.0 mm 0.00 in0.0 mm
04:00 AM -1.6°F-18.7°C -7.1°F-21.7°C 77% Calm Calm -- 30.51 in1033.2 mb - 0.00 in0.0 mm 0.00 in0.0 mm
04:10 AM -1.3°F-18.5°C -6.5°F-21.4°C 78% Calm Calm -- 30.51 in1033.2 mb - 0.00 in0.0 mm 0.00 in0.0 mm
04:20 AM -0.7°F-18.2°C -5.9°F-21.1°C 78% Calm Calm -- 30.50 in1032.8 mb - 0.00 in0.0 mm 0.00 in0.0 mm
04:30 AM 0.0°F-17.8°C -5.2°F-20.7°C 78% Calm Calm -- 30.51 in1033.2 mb - 0.00 in0.0 mm 0.00 in0.0 mm
04:40 AM 0.8°F-17.3°C -4.7°F-20.4°C 77% Calm Calm -- 30.50 in1032.8 mb - 0.00 in0.0 mm 0.00 in0.0 mm
04:50 AM 1.5°F-16.9°C -4.0°F-20.0°C 77% Calm Calm 2.3 mph3.7 kmh 30.51 in1033.2 mb - 0.00 in0.0 mm 0.00 in0.0 mm
05:00 AM 2.4°F-16.4°C -3.5°F-19.7°C 76% Calm Calm 1.2 mph1.9 kmh 30.50 in1032.8 mb - 0.00 in0.0 mm 0.00 in0.0 mm
05:10 AM 3.5°F-15.8°C -3.5°F-19.7°C 72% Calm Calm 2.3 mph3.7 kmh 30.50 in1032.8 mb - 0.00 in0.0 mm 0.00 in0.0 mm
05:20 AM 4.2°F-15.4°C -4.0°F-20.0°C 68% Calm Calm 3.5 mph5.6 kmh 30.51 in1033.2 mb - 0.00 in0.0 mm 0.00 in0.0 mm
05:30 AM 4.6°F-15.2°C -4.6°F-20.3°C 65% 1.2 mph S1.9 kmh S 3.5 mph5.6 kmh 30.51 in1033.2 mb - 0.00 in0.0 mm 0.00 in0.0 mm
05:40 AM 4.6°F-15.2°C -4.9°F-20.5°C 64% Calm Calm 1.2 mph1.9 kmh 30.51 in1033.2 mb - 0.00 in0.0 mm 0.00 in0.0 mm
05:50 AM 4.5°F-15.3°C -5.3°F-20.7°C 63% Calm Calm -- 30.50 in1032.8 mb - 0.00 in0.0 mm 0.00 in0.0 mm
06:00 AM 4.4°F-15.3°C -5.4°F-20.8°C 63% Calm Calm 1.2 mph1.9 kmh 30.50 in1032.8 mb - 0.00 in0.0 mm 0.00 in0.0 mm
06:10 AM 4.3°F-15.4°C -5.9°F-21.1°C 62% Calm Calm -- 30.50 in1032.8 mb - 0.00 in0.0 mm 0.00 in0.0 mm
06:20 AM 4.2°F-15.4°C -6.0°F-21.1°C 62% 1.2 mph SE1.9 kmh SE 3.5 mph5.6 kmh 30.49 in1032.5 mb - 0.00 in0.0 mm 0.00 in0.0 mm
06:30 AM 4.0°F-15.6°C -6.1°F-21.2°C 62% 1.2 mph SE1.9 kmh SE 2.3 mph3.7 kmh 30.49 in1032.5 mb - 0.00 in0.0 mm 0.00 in0.0 mm
06:40 AM 4.0°F-15.6°C -6.1°F-21.2°C 62% 1.2 mph S1.9 kmh S 2.3 mph3.7 kmh 30.48 in1032.2 mb - 0.00 in0.0 mm 0.00 in0.0 mm
06:50 AM 4.0°F-15.6°C -6.5°F-21.4°C 61% 1.2 mph SE1.9 kmh SE 3.5 mph5.6 kmh 30.48 in1032.2 mb - 0.00 in0.0 mm 0.00 in0.0 mm
07:00 AM 4.0°F-15.6°C -6.5°F-21.4°C 61% 1.2 mph SE1.9 kmh SE 4.6 mph7.4 kmh 30.47 in1031.8 mb - 0.00 in0.0 mm 0.00 in0.0 mm
07:10 AM 4.1°F-15.5°C -6.4°F-21.3°C 61% Calm Calm 2.3 mph3.7 kmh 30.47 in1031.8 mb - 0.00 in0.0 mm 0.00 in0.0 mm
07:20 AM 4.2°F-15.4°C -6.3°F-21.3°C 61% Calm Calm -- 30.47 in1031.8 mb - 0.00 in0.0 mm 0.00 in0.0 mm
07:30 AM 4.4°F-15.3°C -6.1°F-21.2°C 61% 1.2 mph SSE1.9 kmh SSE 2.3 mph3.7 kmh 30.47 in1031.8 mb - 0.00 in0.0 mm 0.00 in0.0 mm
07:40 AM 4.5°F-15.3°C -6.0°F-21.1°C 61% Calm Calm 2.3 mph3.7 kmh 30.47 in1031.8 mb - 0.00 in0.0 mm 0.00 in0.0 mm
07:50 AM 4.5°F-15.3°C -6.0°F-21.1°C 61% 1.2 mph SSE1.9 kmh SSE 2.3 mph3.7 kmh 30.47 in1031.8 mb - 0.00 in0.0 mm 0.00 in0.0 mm
08:00 AM 4.6°F-15.2°C -6.3°F-21.3°C 60% 1.2 mph SE1.9 kmh SE 2.3 mph3.7 kmh 30.46 in1031.5 mb - 0.00 in0.0 mm 0.00 in0.0 mm
08:10 AM 4.6°F-15.2°C -6.3°F-21.3°C 60% Calm Calm 2.3 mph3.7 kmh 30.46 in1031.5 mb - 0.00 in0.0 mm 0.00 in0.0 mm
08:20 AM 4.5°F-15.3°C -6.3°F-21.3°C 60% 1.2 mph SSE1.9 kmh SSE 1.2 mph1.9 kmh 30.46 in1031.5 mb - 0.00 in0.0 mm 0.00 in0.0 mm
08:30 AM 4.5°F-15.3°C -6.0°F-21.1°C 61% Calm Calm 2.3 mph3.7 kmh 30.45 in1031.2 mb - 0.00 in0.0 mm 0.00 in0.0 mm
08:40 AM 4.4°F-15.3°C -6.1°F-21.2°C 61% 2.3 mph SE3.7 kmh SE 4.6 mph7.4 kmh 30.44 in1030.8 mb - 0.00 in0.0 mm 0.00 in0.0 mm
08:50 AM 4.3°F-15.4°C -6.2°F-21.2°C 61% Calm Calm 3.5 mph5.6 kmh 30.44 in1030.8 mb - 0.00 in0.0 mm 0.00 in0.0 mm
09:00 AM 4.4°F-15.3°C -6.1°F-21.2°C 61% 1.2 mph S1.9 kmh S 1.2 mph1.9 kmh 30.44 in1030.8 mb - 0.00 in0.0 mm 0.00 in0.0 mm
09:10 AM 4.5°F-15.3°C -6.0°F-21.1°C 61% 2.3 mph SE3.7 kmh SE 3.5 mph5.6 kmh 30.44 in1030.8 mb - 0.00 in0.0 mm 0.00 in0.0 mm
09:20 AM 4.6°F-15.2°C -6.3°F-21.3°C 60% 1.2 mph SE1.9 kmh SE 2.3 mph3.7 kmh 30.43 in1030.5 mb - 0.00 in0.0 mm 0.00 in0.0 mm
09:30 AM 4.9°F-15.1°C -6.0°F-21.1°C 60% 2.3 mph SSE3.7 kmh SSE 3.5 mph5.6 kmh 30.43 in1030.5 mb - 0.00 in0.0 mm 0.00 in0.0 mm
09:40 AM 5.1°F-14.9°C -5.8°F-21.0°C 60% 2.3 mph SE3.7 kmh SE 3.5 mph5.6 kmh 30.42 in1030.1 mb - 0.00 in0.0 mm 0.00 in0.0 mm
09:50 AM 5.6°F-14.7°C -5.7°F-20.9°C 59% 3.5 mph SE5.6 kmh SE 8.1 mph13.0 kmh 30.42 in1030.1 mb - 0.00 in0.0 mm 0.00 in0.0 mm
10:00 AM 5.9°F-14.5°C -6.1°F-21.2°C 57% 1.2 mph SSE1.9 kmh SSE 2.3 mph3.7 kmh 30.42 in1030.1 mb - 0.00 in0.0 mm 0.00 in0.0 mm
10:10 AM 6.7°F-14.1°C -5.7°F-20.9°C 56% 2.3 mph SE3.7 kmh SE 3.5 mph5.6 kmh 30.41 in1029.8 mb - 0.00 in0.0 mm 0.00 in0.0 mm
10:20 AM 6.6°F-14.1°C -6.2°F-21.2°C 55% 2.3 mph SE3.7 kmh SE 4.6 mph7.4 kmh 30.41 in1029.8 mb - 0.00 in0.0 mm 0.00 in0.0 mm
10:30 AM 6.7°F-14.1°C -6.1°F-21.2°C 55% 2.3 mph SE3.7 kmh SE 4.6 mph7.4 kmh 30.41 in1029.8 mb - 0.00 in0.0 mm 0.00 in0.0 mm
10:40 AM 7.0°F-13.9°C -6.2°F-21.2°C 54% 1.2 mph SE1.9 kmh SE 3.5 mph5.6 kmh 30.41 in1029.8 mb - 0.00 in0.0 mm 0.00 in0.0 mm
10:50 AM 7.0°F-13.9°C -5.8°F-21.0°C 55% 2.3 mph SE3.7 kmh SE 4.6 mph7.4 kmh 30.41 in1029.8 mb - 0.00 in0.0 mm 0.00 in0.0 mm
11:00 AM 7.0°F-13.9°C -5.8°F-21.0°C 55% 4.6 mph SE7.4 kmh SE 8.1 mph13.0 kmh 30.40 in1029.5 mb - 0.00 in0.0 mm 0.00 in0.0 mm
11:10 AM 7.1°F-13.8°C -5.7°F-20.9°C 55% 2.3 mph SE3.7 kmh SE 5.8 mph9.3 kmh 30.40 in1029.5 mb - 0.00 in0.0 mm 0.00 in0.0 mm
11:20 AM 7.3°F-13.7°C -5.5°F-20.8°C 55% 2.3 mph SE3.7 kmh SE 4.6 mph7.4 kmh 30.41 in1029.8 mb - 0.00 in0.0 mm 0.00 in0.0 mm
11:30 AM 7.7°F-13.5°C -5.1°F-20.6°C 55% 4.6 mph SE7.4 kmh SE 4.6 mph7.4 kmh 30.41 in1029.8 mb - 0.00 in0.0 mm 0.00 in0.0 mm
11:40 AM 7.8°F-13.4°C -5.4°F-20.8°C 54% Calm Calm 2.3 mph3.7 kmh 30.41 in1029.8 mb - 0.00 in0.0 mm 0.00 in0.0 mm
11:50 AM 8.0°F-13.3°C -5.6°F-20.9°C 53% Calm Calm 3.5 mph5.6 kmh 30.41 in1029.8 mb - 0.00 in0.0 mm 0.00 in0.0 mm
12:00 PM 8.2°F-13.2°C -5.8°F-21.0°C 52% 2.3 mph SE3.7 kmh SE 3.5 mph5.6 kmh 30.40 in1029.5 mb - 0.00 in0.0 mm 0.00 in0.0 mm
12:10 PM 8.5°F-13.1°C -5.5°F-20.8°C 52% 2.3 mph SE3.7 kmh SE 3.5 mph5.6 kmh 30.39 in1029.1 mb - 0.00 in0.0 mm 0.00 in0.0 mm
12:20 PM 8.7°F-12.9°C -5.4°F-20.8°C 52% Calm Calm 3.5 mph5.6 kmh 30.40 in1029.5 mb - 0.00 in0.0 mm 0.00 in0.0 mm
12:30 PM 9.0°F-12.8°C -5.5°F-20.8°C 51% 2.3 mph SE3.7 kmh SE 3.5 mph5.6 kmh 30.39 in1029.1 mb - 0.00 in0.0 mm 0.00 in0.0 mm
12:40 PM 9.3°F-12.6°C -5.6°F-20.9°C 50% Calm Calm 2.3 mph3.7 kmh 30.38 in1028.8 mb - 0.00 in0.0 mm 0.00 in0.0 mm
12:50 PM 9.5°F-12.5°C -5.9°F-21.1°C 49% 3.5 mph SE5.6 kmh SE 5.8 mph9.3 kmh 30.38 in1028.8 mb - 0.00 in0.0 mm 0.00 in0.0 mm
01:00 PM 9.7°F-12.4°C -6.1°F-21.2°C 48% 2.3 mph SE3.7 kmh SE 3.5 mph5.6 kmh 30.39 in1029.1 mb - 0.00 in0.0 mm 0.00 in0.0 mm
01:10 PM 10.0°F-12.2°C -5.4°F-20.8°C 49% 1.2 mph SSE1.9 kmh SSE 3.5 mph5.6 kmh 30.38 in1028.8 mb - 0.00 in0.0 mm 0.00 in0.0 mm
01:20 PM 10.1°F-12.2°C -5.3°F-20.7°C 49% Calm Calm -- 30.38 in1028.8 mb - 0.00 in0.0 mm 0.00 in0.0 mm
01:30 PM 10.0°F-12.2°C -5.8°F-21.0°C 48% 1.2 mph SE1.9 kmh SE 3.5 mph5.6 kmh 30.37 in1028.4 mb - 0.00 in0.0 mm 0.00 in0.0 mm
01:40 PM 9.9°F-12.3°C -5.5°F-20.8°C 49% 2.3 mph SE3.7 kmh SE 3.5 mph5.6 kmh 30.36 in1028.1 mb - 0.00 in0.0 mm 0.00 in0.0 mm
01:50 PM 9.8°F-12.3°C -5.2°F-20.7°C 50% 3.5 mph SE5.6 kmh SE 8.1 mph13.0 kmh 30.36 in1028.1 mb - 0.00 in0.0 mm 0.00 in0.0 mm
02:00 PM 9.8°F-12.3°C -4.3°F-20.2°C 52% 1.2 mph SSE1.9 kmh SSE 3.5 mph5.6 kmh 30.35 in1027.8 mb - 0.00 in0.0 mm 0.00 in0.0 mm
02:10 PM 10.0°F-12.2°C -3.4°F-19.7°C 54% 1.2 mph SE1.9 kmh SE 8.1 mph13.0 kmh 30.35 in1027.8 mb - 0.00 in0.0 mm 0.00 in0.0 mm
02:20 PM 10.0°F-12.2°C -2.6°F-19.2°C 56% Calm Calm 1.2 mph1.9 kmh 30.35 in1027.8 mb - 0.00 in0.0 mm 0.00 in0.0 mm
02:30 PM 10.2°F-12.1°C -1.7°F-18.7°C 58% 2.3 mph SE3.7 kmh SE 3.5 mph5.6 kmh 30.35 in1027.8 mb - 0.00 in0.0 mm 0.00 in0.0 mm
02:40 PM 10.0°F-12.2°C -0.1°F-17.8°C 63% 1.2 mph SE1.9 kmh SE 3.5 mph5.6 kmh 30.34 in1027.4 mb - 0.00 in0.0 mm 0.00 in0.0 mm
02:50 PM 9.9°F-12.3°C 0.5°F-17.5°C 65% 2.3 mph SSE3.7 kmh SSE 3.5 mph5.6 kmh 30.33 in1027.1 mb - 0.00 in0.0 mm 0.00 in0.0 mm
03:00 PM 10.0°F-12.2°C 1.2°F-17.1°C 67% Calm Calm -- 30.33 in1027.1 mb - 0.00 in0.0 mm 0.00 in0.0 mm
03:10 PM 10.4°F-12.0°C 1.9°F-16.7°C 68% 3.5 mph SE5.6 kmh SE 4.6 mph7.4 kmh 30.32 in1026.8 mb - 0.00 in0.0 mm 0.00 in0.0 mm
03:20 PM 10.7°F-11.8°C 2.2°F-16.6°C 68% 2.3 mph SE3.7 kmh SE 4.6 mph7.4 kmh 30.32 in1026.8 mb - 0.00 in0.0 mm 0.00 in0.0 mm
03:30 PM 11.0°F-11.7°C 2.8°F-16.2°C 69% Calm Calm 3.5 mph5.6 kmh 30.31 in1026.4 mb - 0.00 in0.0 mm 0.00 in0.0 mm
03:40 PM 11.4°F-11.4°C 2.9°F-16.2°C 68% 1.2 mph SE1.9 kmh SE 3.5 mph5.6 kmh 30.31 in1026.4 mb - 0.00 in0.0 mm 0.00 in0.0 mm
03:50 PM 11.9°F-11.2°C 3.1°F-16.1°C 67% Calm Calm -- 30.30 in1026.1 mb - 0.00 in0.0 mm 0.00 in0.0 mm
04:00 PM 12.3°F-10.9°C 3.4°F-15.9°C 67% 1.2 mph SE1.9 kmh SE 3.5 mph5.6 kmh 30.30 in1026.1 mb - 0.00 in0.0 mm 0.00 in0.0 mm
04:10 PM 12.8°F-10.7°C 3.9°F-15.6°C 67% 1.2 mph ESE1.9 kmh ESE 4.6 mph7.4 kmh 30.29 in1025.7 mb - 0.00 in0.0 mm 0.00 in0.0 mm
04:20 PM 13.1°F-10.5°C 3.9°F-15.6°C 66% 2.3 mph SE3.7 kmh SE 4.6 mph7.4 kmh 30.28 in1025.4 mb - 0.00 in0.0 mm 0.00 in0.0 mm
04:30 PM 13.3°F-10.4°C 4.1°F-15.5°C 66% 2.3 mph SE3.7 kmh SE 2.3 mph3.7 kmh 30.28 in1025.4 mb - 0.00 in0.0 mm 0.00 in0.0 mm
04:40 PM 13.5°F-10.3°C 4.3°F-15.4°C 66% 2.3 mph SE3.7 kmh SE 6.9 mph11.1 kmh 30.28 in1025.4 mb - 0.00 in0.0 mm 0.00 in0.0 mm
04:50 PM 13.8°F-10.1°C 4.2°F-15.4°C 65% Calm Calm -- 30.27 in1025.1 mb - 0.00 in0.0 mm 0.00 in0.0 mm
05:00 PM 13.9°F-10.1°C 4.3°F-15.4°C 65% 3.5 mph SE5.6 kmh SE 9.2 mph14.8 kmh 30.26 in1024.7 mb - 0.00 in0.0 mm 0.00 in0.0 mm
05:10 PM 14.2°F-9.9°C 4.6°F-15.2°C 65% 1.2 mph SE1.9 kmh SE 3.5 mph5.6 kmh 30.26 in1024.7 mb - 0.00 in0.0 mm 0.00 in0.0 mm
05:20 PM 14.5°F-9.7°C 4.9°F-15.1°C 65% 1.2 mph SE1.9 kmh SE 3.5 mph5.6 kmh 30.25 in1024.4 mb - 0.00 in0.0 mm 0.00 in0.0 mm
05:30 PM 14.6°F-9.7°C 4.6°F-15.2°C 64% 1.2 mph SE1.9 kmh SE 6.9 mph11.1 kmh 30.25 in1024.4 mb - 0.00 in0.0 mm 0.00 in0.0 mm
05:40 PM 14.7°F-9.6°C 4.7°F-15.2°C 64% Calm Calm 3.5 mph5.6 kmh 30.25 in1024.4 mb - 0.00 in0.0 mm 0.00 in0.0 mm
05:50 PM 14.7°F-9.6°C 4.7°F-15.2°C 64% Calm Calm 2.3 mph3.7 kmh 30.25 in1024.4 mb - 0.00 in0.0 mm 0.00 in0.0 mm
06:00 PM 14.9°F-9.5°C 4.9°F-15.1°C 64% Calm Calm 4.6 mph7.4 kmh 30.25 in1024.4 mb - 0.00 in0.0 mm 0.00 in0.0 mm
06:10 PM 15.0°F-9.4°C 5.0°F-15.0°C 64% 1.2 mph ESE1.9 kmh ESE 8.1 mph13.0 kmh 30.24 in1024.0 mb - 0.00 in0.0 mm 0.00 in0.0 mm
06:20 PM 15.2°F-9.3°C 4.9°F-15.1°C 63% 1.2 mph SE1.9 kmh SE 3.5 mph5.6 kmh 30.24 in1024.0 mb - 0.00 in0.0 mm 0.00 in0.0 mm
06:30 PM 15.3°F-9.3°C 4.9°F-15.1°C 63% 2.3 mph ESE3.7 kmh ESE 8.1 mph13.0 kmh 30.24 in1024.0 mb - 0.00 in0.0 mm 0.00 in0.0 mm
06:40 PM 15.5°F-9.2°C 4.8°F-15.1°C 62% 2.3 mph E3.7 kmh E 3.5 mph5.6 kmh 30.24 in1024.0 mb - 0.00 in0.0 mm 0.00 in0.0 mm
06:50 PM 15.6°F-9.1°C 4.9°F-15.1°C 62% 2.3 mph ESE3.7 kmh ESE 4.6 mph7.4 kmh 30.24 in1024.0 mb - 0.00 in0.0 mm 0.00 in0.0 mm
07:00 PM 15.6°F-9.1°C 4.9°F-15.1°C 62% 3.5 mph ESE5.6 kmh ESE 5.8 mph9.3 kmh 30.24 in1024.0 mb - 0.00 in0.0 mm 0.00 in0.0 mm
07:10 PM 15.7°F-9.1°C 5.0°F-15.0°C 62% 2.3 mph ESE3.7 kmh ESE 6.9 mph11.1 kmh 30.24 in1024.0 mb - 0.00 in0.0 mm 0.00 in0.0 mm
07:20 PM 15.7°F-9.1°C 5.0°F-15.0°C 62% 3.5 mph SE5.6 kmh SE 5.8 mph9.3 kmh 30.23 in1023.7 mb - 0.00 in0.0 mm 0.00 in0.0 mm
07:30 PM 15.7°F-9.1°C 5.0°F-15.0°C 62% Calm Calm 3.5 mph5.6 kmh 30.22 in1023.4 mb - 0.00 in0.0 mm 0.00 in0.0 mm
07:40 PM 15.8°F-9.0°C 5.1°F-14.9°C 62% 3.5 mph SE5.6 kmh SE 3.5 mph5.6 kmh 30.22 in1023.4 mb - 0.00 in0.0 mm 0.00 in0.0 mm
07:50 PM 15.8°F-9.0°C 5.1°F-14.9°C 62% 2.3 mph SE3.7 kmh SE 4.6 mph7.4 kmh 30.21 in1023.0 mb - 0.00 in0.0 mm 0.00 in0.0 mm
08:00 PM 15.9°F-8.9°C 5.2°F-14.9°C 62% 3.5 mph SE5.6 kmh SE 6.9 mph11.1 kmh 30.21 in1023.0 mb - 0.00 in0.0 mm 0.00 in0.0 mm
08:10 PM 15.8°F-9.0°C 5.8°F-14.6°C 64% 1.2 mph ESE1.9 kmh ESE 5.8 mph9.3 kmh 30.20 in1022.7 mb - 0.00 in0.0 mm 0.00 in0.0 mm
08:20 PM 16.0°F-8.9°C 5.6°F-14.7°C 63% 3.5 mph SE5.6 kmh SE 6.9 mph11.1 kmh 30.21 in1023.0 mb - 0.00 in0.0 mm 0.00 in0.0 mm
08:30 PM 16.2°F-8.8°C 5.5°F-14.7°C 62% Calm Calm -- 30.21 in1023.0 mb - 0.00 in0.0 mm 0.00 in0.0 mm
08:40 PM 16.3°F-8.7°C 5.5°F-14.7°C 62% 1.2 mph SE1.9 kmh SE 4.6 mph7.4 kmh 30.20 in1022.7 mb - 0.00 in0.0 mm 0.00 in0.0 mm
08:50 PM 16.4°F-8.7°C 5.3°F-14.8°C 61% 3.5 mph SE5.6 kmh SE 4.6 mph7.4 kmh 30.20 in1022.7 mb - 0.00 in0.0 mm 0.00 in0.0 mm
09:00 PM 16.6°F-8.6°C 5.5°F-14.7°C 61% Calm Calm -- 30.19 in1022.4 mb - 0.00 in0.0 mm 0.00 in0.0 mm
09:10 PM 16.7°F-8.5°C 5.6°F-14.7°C 61% Calm Calm -- 30.19 in1022.4 mb - 0.00 in0.0 mm 0.00 in0.0 mm
09:20 PM 16.8°F-8.4°C 5.3°F-14.8°C 60% 1.2 mph SE1.9 kmh SE 2.3 mph3.7 kmh 30.20 in1022.7 mb - 0.00 in0.0 mm 0.00 in0.0 mm
09:30 PM 17.0°F-8.3°C 5.5°F-14.7°C 60% 1.2 mph SE1.9 kmh SE 3.5 mph5.6 kmh 30.20 in1022.7 mb - 0.00 in0.0 mm 0.00 in0.0 mm
09:40 PM 17.1°F-8.3°C 5.2°F-14.9°C 59% Calm Calm -- 30.20 in1022.7 mb - 0.00 in0.0 mm 0.00 in0.0 mm
09:50 PM 17.2°F-8.2°C 5.3°F-14.8°C 59% 2.3 mph SE3.7 kmh SE 4.6 mph7.4 kmh 30.20 in1022.7 mb - 0.00 in0.0 mm 0.00 in0.0 mm
10:00 PM 17.3°F-8.2°C 5.4°F-14.8°C 59% 1.2 mph SSE1.9 kmh SSE 4.6 mph7.4 kmh 30.19 in1022.4 mb - 0.00 in0.0 mm 0.00 in0.0 mm
10:10 PM 17.4°F-8.1°C 5.5°F-14.7°C 59% 1.2 mph ESE1.9 kmh ESE 3.5 mph5.6 kmh 30.20 in1022.7 mb - 0.00 in0.0 mm 0.00 in0.0 mm
10:20 PM 17.6°F-8.0°C 5.7°F-14.6°C 59% Calm Calm 3.5 mph5.6 kmh 30.19 in1022.4 mb - 0.00 in0.0 mm 0.00 in0.0 mm
10:30 PM 17.7°F-7.9°C 5.4°F-14.8°C 58% 2.3 mph SE3.7 kmh SE 6.9 mph11.1 kmh 30.19 in1022.4 mb - 0.00 in0.0 mm 0.00 in0.0 mm
10:40 PM 17.8°F-7.9°C 5.1°F-14.9°C 57% 1.2 mph SSE1.9 kmh SSE -- 30.18 in1022.0 mb - 0.00 in0.0 mm 0.00 in0.0 mm
10:50 PM 17.8°F-7.9°C 5.5°F-14.7°C 58% 2.3 mph SE3.7 kmh SE 8.1 mph13.0 kmh 30.18 in1022.0 mb - 0.00 in0.0 mm 0.00 in0.0 mm
11:00 PM 17.7°F-7.9°C 5.4°F-14.8°C 58% 1.2 mph SE1.9 kmh SE 4.6 mph7.4 kmh 30.18 in1022.0 mb - 0.00 in0.0 mm 0.00 in0.0 mm
11:10 PM 17.8°F-7.9°C 5.5°F-14.7°C 58% 1.2 mph SE1.9 kmh SE 3.5 mph5.6 kmh 30.17 in1021.7 mb - 0.00 in0.0 mm 0.00 in0.0 mm
11:20 PM 17.8°F-7.9°C 5.9°F-14.5°C 59% Calm Calm -- 30.17 in1021.7 mb - 0.00 in0.0 mm 0.00 in0.0 mm
11:30 PM 17.7°F-7.9°C 5.8°F-14.6°C 59% 1.2 mph SE1.9 kmh SE 3.5 mph5.6 kmh 30.17 in1021.7 mb - 0.00 in0.0 mm 0.00 in0.0 mm
11:40 PM 17.8°F-7.9°C 5.9°F-14.5°C 59% 2.3 mph SSE3.7 kmh SSE 3.5 mph5.6 kmh 30.17 in1021.7 mb - 0.00 in0.0 mm 0.00 in0.0 mm
11:50 PM 17.8°F-7.9°C 5.9°F-14.5°C 59% Calm Calm -- 30.16 in1021.3 mb - 0.00 in0.0 mm 0.00 in0.0 mm